Ganzhou, China
Current Conditions -  °F | °C
As of 7:00 PM on Monday 20 Oct 2014 (Local Time) from ZGHA Reporting Station
Haze Haze  
Wind Chill: 81°   Ceiling: Unl
Heat Index: 82°   Visibility: 2.5mi
Dew Point: 64°   Wind: 2mph
Humidity: 58%   Direction: NA
Pressure: 29.85"   Gusts: NA
Location:  25.95°N, 114.93°E
Report Text: ZGHA 201100Z VRB01MPS 4000 HZ SCT050 27/18 Q1011 NOSIG
Loading
Personal Weather Stations






























Interactive Weather Map
Tropical Storm Tracking
New forecast layout! Learn more

10-Day Weather Forecast

Advertisements
Track Severe Weather on mobile